Time;durP1;ratioP1;P1;durP2;ratioP2;P2;SDS_P1;SDS_P2;PMS_P1;PMS_P2;Temp;Humidity;BMP_temperature;BMP_pressure;BME280_temperature;BME280_humidity;BME280_pressure;Samples;Min_cycle;Max_cycle;Signal;HPM_P1;HPM_P2
2023/08/11 00:00:04;;;;;;;3.85;2.75;;;19.80;99.90;;;;;;4897898;29;20397;-68
2023/08/11 00:02:30;;;;;;;3.45;3.00;;;18.80;99.90;;;;;;4898392;29;20400;-68
2023/08/11 00:04:56;;;;;;;4.90;3.20;;;18.60;99.90;;;;;;4897752;29;20037;-68
2023/08/11 00:07:22;;;;;;;3.65;2.85;;;18.80;99.90;;;;;;4897549;29;20052;-68
2023/08/11 00:09:48;;;;;;;7.65;3.35;;;18.60;99.90;;;;;;4897542;29;20393;-69
2023/08/11 00:12:13;;;;;;;5.15;3.28;;;18.70;99.90;;;;;;4897160;29;20102;-68
2023/08/11 00:14:39;;;;;;;5.43;3.25;;;18.70;99.90;;;;;;4897245;29;20109;-68
2023/08/11 00:17:05;;;;;;;4.93;3.00;;;18.50;99.90;;;;;;4897828;29;20036;-69
2023/08/11 00:19:30;;;;;;;4.55;3.38;;;18.60;99.90;;;;;;4897284;29;20036;-68
2023/08/11 00:21:59;;;;;;;8.13;3.78;;;18.40;99.90;;;;;;4897027;29;20052;-68
2023/08/11 00:24:24;;;;;;;5.68;3.67;;;18.50;99.90;;;;;;4897295;29;20117;-68
2023/08/11 00:26:50;;;;;;;3.70;3.00;;;18.30;99.90;;;;;;4897217;29;20497;-68
2023/08/11 00:29:16;;;;;;;3.40;2.83;;;18.30;99.90;;;;;;4898513;29;20100;-68
2023/08/11 00:31:42;;;;;;;4.95;3.90;;;18.20;99.90;;;;;;4881550;29;20045;-68
2023/08/11 00:34:07;;;;;;;4.35;3.58;;;18.20;99.90;;;;;;4896900;29;20408;-68
2023/08/11 00:36:34;;;;;;;5.30;4.18;;;18.30;99.90;;;;;;4896984;29;20128;-68
2023/08/11 00:39:00;;;;;;;6.95;3.90;;;18.20;99.90;;;;;;4881376;29;20044;-69
2023/08/11 00:41:29;;;;;;;4.72;4.00;;;18.20;99.90;;;;;;4898198;29;20049;-68
2023/08/11 00:43:54;;;;;;;6.85;4.63;;;18.30;99.90;;;;;;4897920;29;20041;-68
2023/08/11 00:46:22;;;;;;;8.10;4.80;;;18.40;99.90;;;;;;4896906;29;20386;-68
2023/08/11 00:48:51;;;;;;;5.28;4.40;;;18.30;99.90;;;;;;4897995;29;20056;-68
2023/08/11 00:51:18;;;;;;;6.80;5.40;;;18.30;99.90;;;;;;4896731;29;20045;-68
2023/08/11 00:53:48;;;;;;;6.15;5.05;;;18.40;99.90;;;;;;4896419;29;20429;-68
2023/08/11 00:56:15;;;;;;;7.18;5.32;;;18.40;99.90;;;;;;4897885;29;20079;-68
2023/08/11 00:58:42;;;;;;;9.60;5.32;;;18.40;99.90;;;;;;4896609;29;20041;-68
2023/08/11 01:01:09;;;;;;;6.63;5.20;;;18.40;99.90;;;;;;4897920;29;20044;-68
2023/08/11 01:03:35;;;;;;;10.38;5.32;;;18.10;99.90;;;;;;4896282;29;20044;-68
2023/08/11 01:06:21;;;;;;;8.02;5.38;;;18.30;99.90;;;;;;4896594;29;20096;-68
2023/08/11 01:09:07;;;;;;;7.75;5.80;;;18.30;99.90;;;;;;4896562;29;20048;-68
2023/08/11 01:11:58;;;;;;;7.80;6.10;;;18.20;99.90;;;;;;4896512;29;20135;-68
2023/08/11 01:14:33;;;;;;;7.40;6.03;;;18.10;99.90;;;;;;4880234;29;20390;-68
2023/08/11 01:17:01;;;;;;;8.60;6.00;;;17.90;99.90;;;;;;4896143;29;20072;-68
2023/08/11 01:19:31;;;;;;;7.82;5.95;;;18.80;99.90;;;;;;4897412;29;20543;-68
2023/08/11 01:22:03;;;;;;;8.75;6.03;;;18.00;99.90;;;;;;4897356;29;20161;-68
2023/08/11 01:24:29;;;;;;;7.68;6.13;;;17.90;99.90;;;;;;4896242;29;20527;-68
2023/08/11 01:26:57;;;;;;;8.18;6.10;;;18.10;99.90;;;;;;4896059;29;20508;-68
2023/08/11 01:29:23;;;;;;;13.20;7.00;;;18.00;99.90;;;;;;4896008;29;20059;-68
2023/08/11 01:31:50;;;;;;;12.45;7.65;;;;;;;;;;4896745;29;20048;-67
2023/08/11 01:34:16;;;;;;;9.90;7.55;;;18.00;99.90;;;;;;4895915;29;20048;-68
2023/08/11 01:36:42;;;;;;;9.88;7.15;;;17.90;99.90;;;;;;4897166;29;20411;-68
2023/08/11 01:39:09;;;;;;;10.35;7.70;;;17.90;99.90;;;;;;4896074;29;20051;-68
2023/08/11 01:41:36;;;;;;;11.82;8.13;;;18.00;99.90;;;;;;4895805;29;20040;-69
2023/08/11 01:44:03;;;;;;;10.00;8.07;;;18.10;99.90;;;;;;4895710;29;20040;-69
2023/08/11 01:46:29;;;;;;;9.75;8.07;;;18.00;99.90;;;;;;4895711;29;20092;-69
2023/08/11 01:48:56;;;;;;;10.38;8.77;;;18.10;99.90;;;;;;4897124;29;20083;-68
2023/08/11 01:51:23;;;;;;;16.52;8.60;;;17.90;99.90;;;;;;4895713;29;20079;-69
2023/08/11 01:53:50;;;;;;;11.75;8.65;;;18.10;99.90;;;;;;4879980;29;20044;-69
2023/08/11 01:56:17;;;;;;;11.95;9.13;;;18.10;99.90;;;;;;4895679;29;20044;-68
2023/08/11 01:58:43;;;;;;;12.10;9.55;;;18.20;99.90;;;;;;4879849;29;20131;-69
2023/08/11 02:01:08;;;;;;;13.68;9.10;;;18.00;99.90;;;;;;4879896;29;20115;-69
2023/08/11 02:03:34;;;;;;;12.77;9.07;;;17.90;99.90;;;;;;4895271;29;20076;-69
2023/08/11 02:06:00;;;;;;;12.65;10.15;;;18.20;99.90;;;;;;4896882;29;20092;-69
2023/08/11 02:08:25;;;;;;;14.48;10.10;;;18.00;99.90;;;;;;4895665;29;20390;-68
2023/08/11 02:10:53;;;;;;;15.02;10.50;;;18.10;99.90;;;;;;4896690;29;20091;-69
2023/08/11 02:13:19;;;;;;;12.10;9.55;;;18.10;99.90;;;;;;4895128;29;20104;-68
2023/08/11 02:15:45;;;;;;;14.70;10.05;;;18.10;99.90;;;;;;4895481;29;20076;-69
2023/08/11 02:18:10;;;;;;;11.77;9.63;;;18.00;99.90;;;;;;4896820;29;20076;-69
2023/08/11 02:20:36;;;;;;;13.80;9.93;;;17.80;99.90;;;;;;4895411;29;20041;-69
2023/08/11 02:23:02;;;;;;;14.23;11.18;;;18.20;99.90;;;;;;4895190;29;20055;-69
2023/08/11 02:25:27;;;;;;;11.18;9.50;;;17.90;99.90;;;;;;4898059;29;20420;-69
2023/08/11 02:27:53;;;;;;;13.82;11.10;;;18.10;99.90;;;;;;4899115;29;20036;-68
2023/08/11 02:30:21;;;;;;;12.93;11.52;;;;;;;;;;4900504;29;20127;-69
2023/08/11 02:32:47;;;;;;;12.75;10.25;;;18.00;99.90;;;;;;4899035;29;20528;-69
2023/08/11 02:35:14;;;;;;;14.25;10.05;;;17.90;99.90;;;;;;4899175;29;20509;-68
2023/08/11 02:37:43;;;;;;;14.30;11.25;;;17.90;99.90;;;;;;4899207;29;20041;-68
2023/08/11 02:40:10;;;;;;;17.55;11.80;;;18.10;99.90;;;;;;4899421;29;20450;-69
2023/08/11 02:42:43;;;;;;;12.85;10.05;;;17.90;99.90;;;;;;4898886;29;20056;-69
2023/08/11 02:45:10;;;;;;;17.38;11.10;;;18.10;99.90;;;;;;4899047;29;20095;-69
2023/08/11 02:47:36;;;;;;;11.90;10.65;;;18.00;99.90;;;;;;4898987;29;20048;-69
2023/08/11 02:50:04;;;;;;;15.63;11.95;;;17.90;99.90;;;;;;4898820;29;20452;-69
2023/08/11 02:52:29;;;;;;;14.75;11.90;;;18.00;99.90;;;;;;4898615;29;20053;-69
2023/08/11 02:54:55;;;;;;;15.60;11.07;;;;;;;;;;4898657;29;20043;-69
2023/08/11 02:57:21;;;;;;;18.77;12.70;;;18.00;99.90;;;;;;4898764;29;20072;-68
2023/08/11 02:59:49;;;;;;;14.27;10.98;;;17.80;99.90;;;;;;4900077;29;20095;-69
2023/08/11 03:02:16;;;;;;;12.07;10.38;;;17.90;99.90;;;;;;4898544;29;20048;-69
2023/08/11 03:04:42;;;;;;;11.30;10.18;;;17.80;99.90;;;;;;4898698;29;20576;-69
2023/08/11 03:07:09;;;;;;;12.52;11.23;;;18.00;99.90;;;;;;4898923;29;20044;-69
2023/08/11 03:09:36;;;;;;;14.98;11.00;;;17.90;99.90;;;;;;4898770;29;20055;-68
2023/08/11 03:12:01;;;;;;;13.07;11.60;;;18.20;99.90;;;;;;4898191;29;20080;-69
2023/08/11 03:14:27;;;;;;;13.93;12.07;;;17.80;99.90;;;;;;4898442;29;20076;-69
2023/08/11 03:16:53;;;;;;;13.98;10.70;;;17.90;99.90;;;;;;4898645;29;20071;-68
2023/08/11 03:19:19;;;;;;;12.73;10.43;;;17.80;99.90;;;;;;4882863;29;20036;-69
2023/08/11 03:21:45;;;;;;;13.85;11.18;;;17.80;99.90;;;;;;4898222;29;20050;-68
2023/08/11 03:24:10;;;;;;;13.25;11.00;;;17.90;99.90;;;;;;4898068;29;20049;-68
2023/08/11 03:26:36;;;;;;;12.18;10.85;;;17.90;99.90;;;;;;4898223;29;20045;-69
2023/08/11 03:29:02;;;;;;;13.43;11.70;;;17.80;99.90;;;;;;4898206;29;20041;-68
2023/08/11 03:31:28;;;;;;;12.80;9.68;;;17.70;99.90;;;;;;4898080;29;20048;-69
2023/08/11 03:33:54;;;;;;;11.75;10.02;;;17.70;99.90;;;;;;4899544;29;20119;-69
2023/08/11 03:36:20;;;;;;;11.68;10.20;;;17.70;99.90;;;;;;4897531;29;20120;-69
2023/08/11 03:38:46;;;;;;;13.13;10.07;;;17.90;99.90;;;;;;4897754;29;20047;-69
2023/08/11 03:41:12;;;;;;;10.57;9.48;;;17.70;99.90;;;;;;4898007;29;20044;-68
2023/08/11 03:43:37;;;;;;;12.60;11.02;;;17.70;99.90;;;;;;4897652;29;20067;-69
2023/08/11 03:46:03;;;;;;;12.23;10.98;;;17.80;99.90;;;;;;4882320;29;20112;-69
2023/08/11 03:48:29;;;;;;;17.25;10.98;;;17.80;99.90;;;;;;4898140;29;20419;-69
2023/08/11 03:50:59;;;;;;;13.52;11.05;;;17.80;99.90;;;;;;4897839;29;20139;-69
2023/08/11 03:53:25;;;;;;;13.40;10.73;;;17.60;99.90;;;;;;4897669;29;20052;-69
2023/08/11 03:55:51;;;;;;;13.15;10.52;;;17.50;99.90;;;;;;4897633;29;20051;-69
2023/08/11 03:58:16;;;;;;;12.27;10.02;;;17.60;99.90;;;;;;4897847;29;20098;-68
2023/08/11 04:00:42;;;;;;;11.43;9.43;;;17.50;99.90;;;;;;4899020;29;20088;-69
2023/08/11 04:03:09;;;;;;;14.60;10.23;;;17.70;99.90;;;;;;4897476;29;20052;-68
2023/08/11 04:05:35;;;;;;;12.40;10.25;;;17.70;99.90;;;;;;4897522;29;20049;-68
2023/08/11 04:08:04;;;;;;;11.85;9.63;;;17.80;99.90;;;;;;4897715;29;20461;-69
2023/08/11 04:10:30;;;;;;;13.20;10.90;;;17.70;99.90;;;;;;4897452;29;20527;-68
2023/08/11 04:12:55;;;;;;;12.35;10.20;;;17.50;99.90;;;;;;4898365;29;20040;-69
2023/08/11 04:15:21;;;;;;;12.48;10.23;;;17.70;99.90;;;;;;4898526;29;20047;-68
2023/08/11 04:17:47;;;;;;;12.15;9.73;;;17.60;99.90;;;;;;4897268;29;20037;-69
2023/08/11 04:20:13;;;;;;;13.55;10.00;;;17.80;99.90;;;;;;4898397;29;20060;-69
2023/08/11 04:22:40;;;;;;;12.57;9.63;;;17.70;99.90;;;;;;4897034;29;20051;-68
2023/08/11 04:25:10;;;;;;;12.30;9.52;;;17.80;99.90;;;;;;4922650;23;20060;-70
2023/08/11 04:27:39;;;;;;;12.55;10.15;;;17.60;99.90;;;;;;4900607;29;20040;-71
2023/08/11 04:30:05;;;;;;;10.65;9.45;;;17.60;99.90;;;;;;4917579;29;20456;-69
2023/08/11 04:32:31;;;;;;;12.45;9.60;;;17.70;99.90;;;;;;4917265;29;20044;-70
2023/08/11 04:34:57;;;;;;;11.40;9.50;;;17.40;99.90;;;;;;4900508;29;20127;-72
2023/08/11 04:37:22;;;;;;;11.80;9.32;;;17.90;99.90;;;;;;4900469;29;20055;-70
2023/08/11 04:39:48;;;;;;;11.63;10.05;;;17.90;99.90;;;;;;4900812;29;20410;-70
2023/08/11 04:42:13;;;;;;;11.15;9.23;;;17.70;99.90;;;;;;4917885;29;20039;-70
2023/08/11 04:44:39;;;;;;;13.48;9.93;;;17.70;99.90;;;;;;4900928;29;20080;-70
2023/08/11 04:47:04;;;;;;;12.40;9.35;;;17.70;99.90;;;;;;4901038;29;20036;-70
2023/08/11 04:49:32;;;;;;;9.75;8.50;;;17.80;99.90;;;;;;4917415;29;20040;-70
2023/08/11 04:51:58;;;;;;;15.18;10.48;;;17.80;99.90;;;;;;4917015;29;20048;-70
2023/08/11 04:54:24;;;;;;;10.27;8.43;;;17.70;99.90;;;;;;4900309;29;20036;-72
2023/08/11 04:56:50;;;;;;;11.70;8.85;;;17.90;99.90;;;;;;4900328;29;20382;-70
2023/08/11 04:59:17;;;;;;;12.63;9.68;;;18.00;99.90;;;;;;4900147;29;20044;-70
2023/08/11 05:01:43;;;;;;;13.25;8.68;;;18.00;99.90;;;;;;4899807;29;20083;-71
2023/08/11 05:04:09;;;;;;;14.13;9.23;;;17.90;99.90;;;;;;4899524;29;20075;-70
2023/08/11 05:06:35;;;;;;;12.27;8.20;;;;;;;;;;4916870;29;20036;-70
2023/08/11 05:09:05;;;;;;;11.65;9.45;;;18.20;99.90;;;;;;4899822;29;20130;-70
2023/08/11 05:11:30;;;;;;;12.35;8.65;;;18.10;99.90;;;;;;4899718;29;20046;-70
2023/08/11 05:13:56;;;;;;;10.57;8.95;;;18.10;99.90;;;;;;4884105;29;20044;-70
2023/08/11 05:16:22;;;;;;;11.82;9.27;;;18.30;99.90;;;;;;4884275;29;20504;-70
2023/08/11 05:18:48;;;;;;;10.27;7.57;;;18.20;99.90;;;;;;4917013;29;20044;-70
2023/08/11 05:21:14;;;;;;;10.43;9.25;;;18.40;99.90;;;;;;4916829;29;20408;-70
2023/08/11 05:23:39;;;;;;;11.98;8.55;;;18.30;99.90;;;;;;4916528;29;20040;-70
2023/08/11 05:26:05;;;;;;;13.68;8.55;;;18.30;99.90;;;;;;4899262;29;20058;-71
2023/08/11 05:28:31;;;;;;;11.50;8.52;;;18.30;99.90;;;;;;4899561;29;20036;-70
2023/08/11 05:30:56;;;;;;;10.57;8.02;;;18.50;99.90;;;;;;4899705;29;20046;-70
2023/08/11 05:33:25;;;;;;;10.63;8.10;;;18.40;99.90;;;;;;4916858;29;20040;-70
2023/08/11 05:35:51;;;;;;;13.90;7.95;;;18.60;99.90;;;;;;4900521;29;20071;-70
2023/08/11 05:38:22;;;;;;;11.27;9.32;;;18.50;99.90;;;;;;4917795;29;20032;-70
2023/08/11 05:40:48;;;;;;;10.82;8.05;;;18.70;99.90;;;;;;4900912;29;20044;-70
2023/08/11 05:43:14;;;;;;;11.70;8.52;;;18.70;99.90;;;;;;4916489;29;20052;-72
2023/08/11 05:45:39;;;;;;;14.88;9.25;;;18.50;99.90;;;;;;4916424;29;20044;-71
2023/08/11 05:48:05;;;;;;;10.55;8.48;;;18.70;99.90;;;;;;4899318;29;20056;-71
2023/08/11 05:50:31;;;;;;;9.65;8.30;;;18.80;99.90;;;;;;4916059;29;20046;-72
2023/08/11 05:52:57;;;;;;;10.55;8.43;;;19.00;99.90;;;;;;4915765;29;20043;-72
2023/08/11 05:55:22;;;;;;;13.27;8.00;;;19.10;99.90;;;;;;4898878;29;20036;-72
2023/08/11 05:57:49;;;;;;;10.18;8.00;;;19.00;99.90;;;;;;4899094;29;20062;-72
2023/08/11 06:00:18;;;;;;;12.07;8.40;;;19.20;99.90;;;;;;4898914;29;20119;-72
2023/08/11 06:02:46;;;;;;;14.00;8.38;;;19.50;99.90;;;;;;4899047;29;20428;-72
2023/08/11 06:05:12;;;;;;;9.35;7.90;;;19.10;99.90;;;;;;4898948;29;20487;-72
2023/08/11 06:07:39;;;;;;;8.50;7.60;;;19.40;99.90;;;;;;4915995;29;20047;-72
2023/08/11 06:10:05;;;;;;;13.68;8.80;;;19.50;99.90;;;;;;4899102;29;20508;-72
2023/08/11 06:12:31;;;;;;;10.98;7.70;;;19.50;99.90;;;;;;4898528;29;20416;-72
2023/08/11 06:14:57;;;;;;;10.57;8.95;;;19.70;99.90;;;;;;4915623;29;20040;-72
2023/08/11 06:17:23;;;;;;;10.50;6.95;;;19.80;99.90;;;;;;4898789;29;20039;-72
2023/08/11 06:19:49;;;;;;;13.57;7.88;;;19.70;99.90;;;;;;4915750;29;20075;-72
2023/08/11 06:22:14;;;;;;;11.00;7.38;;;19.90;99.90;;;;;;4915888;29;20131;-72
2023/08/11 06:24:40;;;;;;;11.20;7.88;;;19.90;99.90;;;;;;4915430;29;20048;-72
2023/08/11 06:27:06;;;;;;;10.45;7.03;;;19.80;99.90;;;;;;4898517;29;20107;-72
2023/08/11 06:29:32;;;;;;;9.20;7.55;;;20.00;99.90;;;;;;4898690;29;20044;-72
2023/08/11 06:31:57;;;;;;;11.07;7.28;;;20.20;99.90;;;;;;4898308;29;20058;-72
2023/08/11 06:34:23;;;;;;;9.57;7.70;;;20.70;99.90;;;;;;4898752;29;20076;-72
2023/08/11 06:36:49;;;;;;;15.88;9.18;;;20.20;99.90;;;;;;4915646;29;20072;-72
2023/08/11 06:39:15;;;;;;;10.32;7.43;;;20.50;99.90;;;;;;4915625;29;20044;-71
2023/08/11 06:41:41;;;;;;;10.27;7.47;;;22.80;99.90;;;;;;4882947;29;20512;-71
2023/08/11 06:44:07;;;;;;;10.30;7.03;;;20.70;99.90;;;;;;4915578;29;20044;-70
2023/08/11 06:46:33;;;;;;;10.38;6.22;;;21.00;99.90;;;;;;4898842;29;20107;-70
2023/08/11 06:48:59;;;;;;;7.45;6.22;;;20.80;99.90;;;;;;4898450;29;20509;-71
2023/08/11 06:51:24;;;;;;;8.65;7.07;;;21.20;99.90;;;;;;4915311;29;20051;-70
2023/08/11 06:53:50;;;;;;;12.98;6.43;;;21.00;99.90;;;;;;4882447;29;20051;-70
2023/08/11 06:56:15;;;;;;;11.18;6.65;;;21.20;99.90;;;;;;4898446;29;20051;-71
2023/08/11 06:58:41;;;;;;;8.52;6.50;;;21.30;99.90;;;;;;4915625;29;20040;-70
2023/08/11 07:01:29;;;;;;;10.07;6.35;;;22.50;99.90;;;;;;4915909;29;20045;-72
2023/08/11 07:04:17;;;;;;;10.52;6.05;;;21.50;99.90;;;;;;4883938;29;20048;-71
2023/08/11 07:13:35;;;;;;;7.65;5.93;;;21.70;99.90;;;;;;4905547;29;20048;-70
2023/08/11 07:16:46;;;;;;;10.90;6.13;;;21.90;99.90;;;;;;4887701;29;20107;-70
2023/08/11 07:19:18;;;;;;;8.02;5.32;;;21.80;99.90;;;;;;4901826;29;20040;-70
2023/08/11 07:21:51;;;;;;;8.90;6.25;;;22.40;99.90;;;;;;4887079;29;20523;-70
2023/08/11 07:24:33;;;;;;;;;;;;;;;;;;;;;
2023/08/11 07:27:14;;;;;;;8.13;5.38;;;22.20;99.90;;;;;;4918964;29;20048;-71
2023/08/11 07:30:09;;;;;;;9.73;5.50;;;22.40;99.90;;;;;;4919002;29;20460;-71
2023/08/11 07:33:48;;;;;;;10.07;5.15;;;22.50;99.90;;;;;;4919295;29;20051;-71
2023/08/11 07:36:34;;;;;;;7.25;5.13;;;22.80;99.90;;;;;;4900493;29;20090;-71
2023/08/11 07:39:12;;;;;;;;;;;;;;;;;;;;;
2023/08/11 07:41:47;;;;;;;11.65;5.95;;;22.90;99.90;;;;;;4901741;29;20048;-70
2023/08/11 07:44:54;;;;;;;7.15;5.70;;;23.00;99.90;;;;;;4918310;29;20172;-70
2023/08/11 07:50:50;;;;;;;6.88;4.93;;;23.30;99.90;;;;;;4917334;29;20058;-72
2023/08/11 07:53:55;;;;;;;6.40;4.70;;;23.10;99.90;;;;;;4888649;29;20067;-71
2023/08/11 07:57:00;;;;;;;;;;;;;;;;;;;;;
2023/08/11 08:00:26;;;;;;;;;;;;;;;;;;;;;
2023/08/11 08:03:18;;;;;;;6.78;4.05;;;23.60;99.90;;;;;;4863604;29;20056;-71
2023/08/11 08:06:21;;;;;;;12.18;5.30;;;23.80;99.90;;;;;;4902378;29;20078;-70
2023/08/11 08:08:53;;;;;;;7.07;4.32;;;23.90;99.90;;;;;;4918066;29;20051;-72
2023/08/11 08:15:34;;;;;;;5.45;4.03;;;24.10;99.90;;;;;;4899609;29;20052;-71
2023/08/11 08:18:29;;;;;;;6.15;4.45;;;24.20;99.90;;;;;;4886515;29;20064;-70
2023/08/11 08:21:51;;;;;;;7.72;4.43;;;23.70;99.90;;;;;;4901244;29;20075;-71
2023/08/11 08:27:51;;;;;;;5.47;4.57;;;24.30;99.90;;;;;;4890950;29;20095;-71
2023/08/11 08:33:11;;;;;;;7.70;4.15;;;24.60;99.90;;;;;;4894565;29;20052;-70
2023/08/11 08:35:54;;;;;;;8.73;3.80;;;24.60;99.90;;;;;;4872554;29;20044;-70
2023/08/11 08:38:31;;;;;;;8.57;4.45;;;24.70;99.90;;;;;;4896160;29;20059;-70
2023/08/11 08:41:05;;;;;;;6.28;4.07;;;24.00;99.90;;;;;;4900696;29;20036;-70
2023/08/11 08:43:59;;;;;;;7.25;4.05;;;24.80;99.90;;;;;;4901944;29;20044;-71
2023/08/11 08:46:49;;;;;;;7.18;4.72;;;25.10;99.90;;;;;;4901396;29;20135;-71
2023/08/11 08:49:36;;;;;;;10.00;4.00;;;26.20;99.90;;;;;;4885671;29;20243;-70
2023/08/11 08:52:21;;;;;;;7.07;3.67;;;25.10;99.90;;;;;;4901468;29;20044;-71
2023/08/11 08:55:18;;;;;;;10.43;4.30;;;25.20;99.90;;;;;;4901551;29;20064;-70
2023/08/11 08:58:15;;;;;;;;;;;;;;;;;;;;;
2023/08/11 09:01:48;;;;;;;;;;;;;;;;;;;;;
2023/08/11 09:04:52;;;;;;;;;;;;;;;;;;;;;
2023/08/11 09:07:52;;;;;;;5.85;3.75;;;27.10;99.90;;;;;;4899387;29;20048;-70
2023/08/11 09:10:43;;;;;;;;;;;;;;;;;;;;;
2023/08/11 09:13:30;;;;;;;4.80;3.60;;;25.60;99.90;;;;;;4899587;29;20048;-71
2023/08/11 09:16:59;;;;;;;10.50;3.75;;;26.00;99.90;;;;;;4916671;29;20054;-71
2023/08/11 09:19:41;;;;;;;9.00;3.78;;;26.10;99.90;;;;;;4899291;29;20044;-72
2023/08/11 09:22:36;;;;;;;6.07;3.63;;;26.00;99.90;;;;;;4884003;29;20080;-73
2023/08/11 09:28:43;;;;;;;7.03;3.63;;;23.70;99.90;;;;;;4914909;29;20131;-70
2023/08/11 09:31:35;;;;;;;5.30;3.30;;;26.30;99.90;;;;;;4884257;29;20044;-71
2023/08/11 09:37:30;;;;;;;7.45;3.72;;;26.30;99.90;;;;;;4910004;29;20048;-71
2023/08/11 09:43:03;;;;;;;9.35;3.92;;;26.70;99.90;;;;;;4892495;29;20111;-71
2023/08/11 09:57:14;;;;;;;6.97;3.22;;;27.10;99.90;;;;;;4872840;29;20052;-70
2023/08/11 09:59:53;;;;;;;5.68;3.03;;;27.10;99.90;;;;;;4914565;29;20099;-70
2023/08/11 10:03:22;;;;;;;5.05;3.05;;;27.50;99.90;;;;;;4916249;29;20064;-72
2023/08/11 10:05:53;;;;;;;8.07;3.63;;;25.00;99.90;;;;;;4911773;23;20059;-70
2023/08/11 10:08:21;;;;;;;5.78;3.10;;;27.30;99.90;;;;;;4917511;29;20047;-70
2023/08/11 10:10:47;;;;;;;14.52;3.53;;;27.60;99.90;;;;;;4917822;29;20121;-70
2023/08/11 10:13:21;;;;;;;9.07;3.78;;;27.70;99.90;;;;;;4917368;29;20077;-70
2023/08/11 10:15:48;;;;;;;5.63;2.90;;;28.30;99.90;;;;;;4917691;29;20040;-70
2023/08/11 10:18:16;;;;;;;6.25;2.97;;;27.70;99.90;;;;;;4934588;29;20182;-70
2023/08/11 10:20:42;;;;;;;7.80;3.15;;;27.80;99.90;;;;;;4917547;29;20384;-69
2023/08/11 10:23:08;;;;;;;8.00;3.15;;;27.70;99.90;;;;;;4917148;29;20055;-70
2023/08/11 10:25:35;;;;;;;6.25;3.13;;;27.70;99.90;;;;;;4917319;29;20052;-70
2023/08/11 10:28:02;;;;;;;5.53;2.78;;;27.80;99.90;;;;;;4917371;29;20047;-70
2023/08/11 10:30:27;;;;;;;10.70;3.13;;;27.90;99.90;;;;;;4917376;29;20513;-70
2023/08/11 10:33:03;;;;;;;6.85;3.03;;;27.80;99.90;;;;;;4916931;29;20075;-70
2023/08/11 10:35:51;;;;;;;5.05;2.88;;;28.00;99.90;;;;;;4917231;29;20043;-70
2023/08/11 10:38:29;;;;;;;5.53;2.53;;;27.50;99.90;;;;;;4917416;29;20043;-70
2023/08/11 10:41:05;;;;;;;5.32;3.05;;;27.60;99.90;;;;;;4917627;29;20507;-70
2023/08/11 10:43:35;;;;;;;6.25;3.67;;;27.90;99.90;;;;;;4933969;29;20051;-70
2023/08/11 10:46:26;;;;;;;6.82;2.95;;;28.20;99.90;;;;;;4935051;29;20119;-70
2023/08/11 10:49:04;;;;;;;4.53;3.05;;;28.30;99.90;;;;;;4920913;29;20055;-70
2023/08/11 10:51:29;;;;;;;5.38;2.70;;;28.50;99.90;;;;;;4920984;29;20063;-70
2023/08/11 10:54:25;;;;;;;5.88;3.22;;;28.10;99.90;;;;;;4920530;29;20043;-70
2023/08/11 10:56:52;;;;;;;5.63;2.83;;;28.30;99.90;;;;;;4935671;29;20098;-70
2023/08/11 10:59:24;;;;;;;10.27;3.42;;;27.90;99.90;;;;;;4920836;29;20044;-70
2023/08/11 11:01:54;;;;;;;5.03;3.08;;;28.40;99.90;;;;;;4920919;29;20036;-70
2023/08/11 11:04:26;;;;;;;5.70;2.88;;;28.50;99.90;;;;;;4904869;29;20094;-70
2023/08/11 11:06:52;;;;;;;3.33;2.67;;;28.50;99.90;;;;;;4920751;29;20031;-70
2023/08/11 11:09:18;;;;;;;6.43;3.10;;;28.70;99.90;;;;;;4920708;29;20095;-70
2023/08/11 11:11:45;;;;;;;6.50;3.03;;;28.50;99.90;;;;;;4920578;29;20052;-70
2023/08/11 11:14:12;;;;;;;5.78;3.05;;;28.80;99.90;;;;;;4904615;29;20411;-70
2023/08/11 11:16:39;;;;;;;6.03;3.53;;;28.80;99.90;;;;;;4920788;29;20504;-70
2023/08/11 11:19:07;;;;;;;3.95;2.85;;;28.80;99.90;;;;;;4920569;29;20122;-70
2023/08/11 11:21:33;;;;;;;5.93;2.88;;;28.50;99.90;;;;;;4920624;29;20110;-70
2023/08/11 11:23:59;;;;;;;5.35;3.20;;;28.50;99.90;;;;;;4937251;29;20047;-70
2023/08/11 11:26:27;;;;;;;9.43;3.65;;;28.50;99.90;;;;;;4920422;29;20504;-70
2023/08/11 11:28:55;;;;;;;5.90;2.90;;;28.80;99.90;;;;;;4920521;29;20039;-70
2023/08/11 11:31:22;;;;;;;7.38;2.90;;;28.60;99.90;;;;;;4920113;29;20048;-70
2023/08/11 11:33:51;;;;;;;5.20;2.80;;;29.10;99.90;;;;;;4919868;29;20127;-70
2023/08/11 11:36:19;;;;;;;12.95;3.88;;;28.90;99.90;;;;;;4920175;29;20499;-70
2023/08/11 11:38:45;;;;;;;7.20;3.15;;;29.10;99.90;;;;;;4920049;29;20044;-70
2023/08/11 11:41:18;;;;;;;7.28;3.45;;;29.10;99.90;;;;;;4904400;29;20057;-70
2023/08/11 11:43:45;;;;;;;;;;;29.30;99.90;;;;;;4920312;29;20047;-70
2023/08/11 11:46:17;;;;;;;8.93;3.30;;;29.20;99.90;;;;;;4920107;29;19918;-70
2023/08/11 11:48:44;;;;;;;;;;;29.30;99.90;;;;;;4920396;29;20113;-70
2023/08/11 11:51:15;;;;;;;5.80;3.10;;;29.10;99.90;;;;;;4919809;29;20387;-70
2023/08/11 11:53:41;;;;;;;9.82;3.80;;;29.40;99.90;;;;;;4919556;29;20050;-70
2023/08/11 11:56:07;;;;;;;4.32;3.30;;;29.40;99.90;;;;;;4920008;29;20377;-70
2023/08/11 11:58:36;;;;;;;6.18;3.00;;;29.30;99.90;;;;;;4918955;29;20043;-70
2023/08/11 12:01:19;;;;;;;6.78;3.50;;;29.70;99.90;;;;;;4936752;29;20039;-70
2023/08/11 12:03:46;;;;;;;9.57;3.63;;;29.30;99.90;;;;;;4919650;29;20098;-70
2023/08/11 12:06:14;;;;;;;7.63;3.25;;;29.50;99.90;;;;;;4919504;29;20507;-70
2023/08/11 12:08:41;;;;;;;4.05;3.10;;;29.60;99.90;;;;;;4919747;29;20456;-70
2023/08/11 12:11:10;;;;;;;7.05;3.25;;;29.10;99.90;;;;;;4919428;29;20058;-70
2023/08/11 12:13:38;;;;;;;6.72;3.30;;;29.40;99.90;;;;;;4919207;29;20054;-70
2023/08/11 12:16:07;;;;;;;5.40;3.47;;;29.40;99.90;;;;;;4919626;29;20059;-70
2023/08/11 12:18:33;;;;;;;5.50;3.42;;;29.50;99.90;;;;;;4919592;29;20400;-70
2023/08/11 12:21:00;;;;;;;5.55;3.03;;;29.50;99.90;;;;;;4919299;29;20101;-70
2023/08/11 12:23:27;;;;;;;7.10;3.60;;;29.70;99.90;;;;;;4919071;29;20107;-69
2023/08/11 12:25:53;;;;;;;8.27;3.33;;;29.50;99.90;;;;;;4919451;29;20574;-70
2023/08/11 12:28:19;;;;;;;4.15;3.17;;;29.20;99.90;;;;;;4919285;29;20296;-70
2023/08/11 12:30:45;;;;;;;7.10;3.15;;;29.50;99.90;;;;;;4936199;29;20044;-70
2023/08/11 12:33:10;;;;;;;3.90;3.13;;;29.40;99.90;;;;;;4935853;29;20047;-70
2023/08/11 12:35:36;;;;;;;5.97;3.30;;;29.70;99.90;;;;;;4919158;29;20039;-70
2023/08/11 12:38:03;;;;;;;6.68;3.03;;;29.60;99.90;;;;;;4919237;29;20040;-70
2023/08/11 12:40:30;;;;;;;4.63;3.13;;;30.10;99.90;;;;;;4903336;29;20070;-70
2023/08/11 12:42:56;;;;;;;4.13;2.90;;;30.00;99.90;;;;;;4919204;29;20051;-70
2023/08/11 12:45:21;;;;;;;7.35;2.75;;;30.10;99.90;;;;;;4919098;29;20504;-69
2023/08/11 12:47:47;;;;;;;5.10;3.30;;;30.00;99.90;;;;;;4919252;29;20083;-70
2023/08/11 12:50:12;;;;;;;5.05;2.70;;;29.80;99.90;;;;;;4918928;29;20055;-69
2023/08/11 12:52:39;;;;;;;4.38;3.17;;;29.60;99.90;;;;;;4903125;29;20048;-70
2023/08/11 12:55:05;;;;;;;7.63;2.75;;;29.50;99.90;;;;;;4936197;29;20148;-70
2023/08/11 12:57:32;;;;;;;6.68;2.60;;;29.60;99.90;;;;;;4919658;29;20530;-70
2023/08/11 12:59:57;;;;;;;6.00;3.05;;;29.60;99.90;;;;;;4903408;29;20031;-70
2023/08/11 13:02:23;;;;;;;5.53;2.60;;;29.50;99.90;;;;;;4919291;29;20507;-70
2023/08/11 13:04:49;;;;;;;6.95;3.08;;;29.60;99.90;;;;;;4919455;29;20050;-70
2023/08/11 13:07:14;;;;;;;6.18;2.85;;;29.90;99.90;;;;;;4919007;29;20040;-69
2023/08/11 13:09:40;;;;;;;3.13;2.70;;;29.80;99.90;;;;;;4917980;29;20052;-70
2023/08/11 13:12:12;;;;;;;4.47;2.28;;;29.60;99.90;;;;;;4902717;29;20099;-69
2023/08/11 13:14:39;;;;;;;6.13;2.60;;;29.70;99.90;;;;;;4918567;29;20050;-70
2023/08/11 13:17:04;;;;;;;4.78;2.53;;;29.50;99.90;;;;;;4918517;29;20081;-69
2023/08/11 13:19:30;;;;;;;4.07;2.38;;;29.30;99.90;;;;;;4918356;29;20075;-69
2023/08/11 13:21:59;;;;;;;4.45;2.47;;;29.30;99.90;;;;;;4918070;29;20170;-69
2023/08/11 13:24:25;;;;;;;3.33;2.35;;;29.30;99.90;;;;;;4918326;29;20044;-69
2023/08/11 13:26:50;;;;;;;5.45;2.55;;;29.10;99.90;;;;;;4918302;29;20047;-70
2023/08/11 13:29:16;;;;;;;5.85;2.47;;;29.20;99.90;;;;;;4918210;29;20040;-70
2023/08/11 13:31:41;;;;;;;3.10;2.50;;;29.20;99.90;;;;;;4918211;29;20043;-69
2023/08/11 13:34:07;;;;;;;5.03;2.45;;;29.30;99.90;;;;;;4934785;29;20103;-69
2023/08/11 13:36:33;;;;;;;3.83;2.20;;;29.40;99.90;;;;;;4917901;29;20075;-68
2023/08/11 13:38:58;;;;;;;3.50;2.50;;;28.90;99.90;;;;;;4917940;29;20039;-69
2023/08/11 13:41:24;;;;;;;6.35;2.50;;;29.10;99.90;;;;;;4917943;29;20035;-68
2023/08/11 13:43:50;;;;;;;3.53;2.03;;;29.40;99.90;;;;;;4917505;29;20043;-69
2023/08/11 13:46:16;;;;;;;5.90;2.30;;;29.50;99.90;;;;;;4917844;29;20050;-68
2023/08/11 13:48:42;;;;;;;4.32;2.20;;;29.50;99.90;;;;;;4917805;29;20110;-69
2023/08/11 13:51:07;;;;;;;4.30;2.28;;;29.00;99.90;;;;;;4917946;29;20043;-68